Time;durP1;ratioP1;P1;durP2;ratioP2;P2;SDS_P1;SDS_P2;PMS_P1;PMS_P2;Temp;Humidity;BMP_temperature;BMP_pressure;BME280_temperature;BME280_humidity;BME280_pressure;Samples;Min_cycle;Max_cycle;Signal;HPM_P1;HPM_P2
2024/02/22 00:00:57;;;;;;;65.43;18.60;;;;;;;5.21;100.00;99704.13;5018723;28;20050;-68
2024/02/22 00:03:22;;;;;;;51.60;17.67;;;;;;;5.25;100.00;99692.06;5002143;28;20060;-67
2024/02/22 00:05:48;;;;;;;55.22;19.77;;;;;;;5.26;100.00;99676.88;5019872;28;20033;-68
2024/02/22 00:08:13;;;;;;;61.75;20.08;;;;;;;5.28;100.00;99681.03;5021941;28;20234;-67
2024/02/22 00:10:39;;;;;;;60.00;19.52;;;;;;;5.30;100.00;99672.84;5004494;28;20216;-67
2024/02/22 00:13:04;;;;;;;48.33;19.77;;;;;;;5.32;100.00;99665.44;5019236;28;20068;-67
2024/02/22 00:15:30;;;;;;;66.63;20.30;;;;;;;5.18;100.00;99638.66;5019639;28;20034;-67
2024/02/22 00:17:56;;;;;;;55.85;20.67;;;;;;;5.34;100.00;99653.56;5019057;28;20030;-68
2024/02/22 00:20:21;;;;;;;57.22;20.65;;;;;;;5.35;100.00;99644.56;5019175;28;20045;-67
2024/02/22 00:22:47;;;;;;;58.47;21.20;;;;;;;5.34;100.00;99631.41;5017521;28;20053;-68
2024/02/22 00:25:13;;;;;;;58.58;20.63;;;;;;;5.36;100.00;99635.56;5018635;28;20030;-68
2024/02/22 00:27:39;;;;;;;63.28;20.45;;;;;;;5.37;100.00;99625.69;5018599;28;20030;-68
2024/02/22 00:30:17;;;;;;;57.33;20.55;;;;;;;5.36;100.00;99614.22;5017782;28;20040;-66
2024/02/22 00:32:43;;;;;;;68.25;22.13;;;;;;;5.30;100.00;99600.81;5019199;28;20034;-68
2024/02/22 00:35:10;;;;;;;55.15;20.77;;;;;;;5.32;100.00;99590.78;5017625;28;20105;-67
2024/02/22 00:37:35;;;;;;;60.67;20.42;;;;;;;5.39;100.00;99589.78;5017981;28;20033;-69
2024/02/22 00:40:08;;;;;;;58.65;21.35;;;;;;;5.45;100.00;99593.53;5019232;28;20022;-68
2024/02/22 00:42:33;;;;;;;57.47;21.27;;;;;;;5.46;100.00;99587.16;5017997;28;20117;-66
2024/02/22 00:44:59;;;;;;;58.25;21.27;;;;;;;5.44;100.00;99564.38;5018418;28;20060;-67
2024/02/22 00:47:24;;;;;;;55.85;21.25;;;;;;;5.50;100.00;99568.94;5019020;28;20037;-67
2024/02/22 00:49:50;;;;;;;59.55;22.27;;;;;;;5.51;100.00;99560.72;5019291;28;20036;-67
2024/02/22 00:52:15;;;;;;;51.65;20.77;;;;;;;5.51;100.00;99551.91;5019526;28;20386;-67
2024/02/22 00:54:41;;;;;;;50.92;21.15;;;;;;;5.53;100.00;99537.34;5018270;28;20116;-67
2024/02/22 00:57:07;;;;;;;61.22;21.80;;;;;;;5.42;100.00;99522.69;5018665;28;20125;-67
2024/02/22 00:59:33;;;;;;;54.72;21.45;;;;;;;5.56;100.00;99538.78;5018673;28;20183;-67
2024/02/22 01:01:59;;;;;;;55.55;21.80;;;;;;;5.57;100.00;99527.94;5001432;28;20026;-67
2024/02/22 01:04:25;;;;;;;57.50;22.90;;;;;;;5.58;100.00;99526.91;5018770;28;20024;-67
2024/02/22 01:06:57;;;;;;;55.65;23.63;;;;;;;5.60;100.00;99518.72;5017624;28;20069;-68
2024/02/22 01:09:23;;;;;;;59.40;23.17;;;;;;;5.53;100.00;99500.00;5018717;28;20025;-67
2024/02/22 01:11:49;;;;;;;59.17;23.77;;;;;;;5.64;100.00;99510.09;5017015;28;20504;-67
2024/02/22 01:14:15;;;;;;;51.33;23.08;;;;;;;5.64;100.00;99503.94;5019013;28;20030;-77
2024/02/22 01:16:43;;;;;;;54.38;24.05;;;;;;;5.63;100.00;99497.78;5020388;28;20053;-68
2024/02/22 01:19:09;;;;;;;64.63;25.05;;;;;;;5.50;100.00;99460.38;5019280;28;20029;-67
2024/02/22 01:21:34;;;;;;;52.53;24.30;;;;;;;5.51;100.00;99462.00;5018079;28;20041;-68
2024/02/22 01:24:00;;;;;;;54.75;24.35;;;;;;;5.62;100.00;99477.44;5019873;28;20365;-70
2024/02/22 01:26:25;;;;;;;56.70;25.45;;;;;;;5.65;100.00;99470.88;5018306;28;20026;-68
2024/02/22 01:28:50;;;;;;;54.92;25.50;;;;;;;5.64;100.00;99462.06;5019059;28;20030;-67
2024/02/22 01:31:16;;;;;;;57.55;25.58;;;;;;;5.57;100.00;99450.53;5017852;28;20034;-67
2024/02/22 01:33:44;;;;;;;60.13;25.13;;;;;;;5.64;100.00;99451.38;5018245;28;20021;-68
2024/02/22 01:36:11;;;;;;;48.85;23.70;;;;;;;5.70;100.00;99457.78;5017314;28;20093;-67
2024/02/22 01:38:36;;;;;;;56.55;25.63;;;;;;;5.69;100.00;99455.28;5018528;28;20058;-68
2024/02/22 01:41:03;;;;;;;55.70;25.80;;;;;;;5.70;100.00;99444.44;5001226;28;20133;-72
2024/02/22 01:43:29;;;;;;;55.75;25.35;;;;;;;5.51;100.00;99405.16;5017557;28;20511;-67
2024/02/22 01:45:57;;;;;;;51.97;25.52;;;;;;;5.53;100.00;99406.63;5017414;28;20124;-67
2024/02/22 01:48:22;;;;;;;61.45;26.33;;;;;;;5.65;100.00;99426.34;5019120;28;20037;-67
2024/02/22 01:50:52;;;;;;;54.47;24.77;;;;;;;5.69;100.00;99420.59;5017180;28;20034;-68
2024/02/22 01:53:30;;;;;;;57.60;25.90;;;;;;;5.55;100.00;99399.22;5018440;28;20034;-67
2024/02/22 01:56:00;;;;;;;53.72;25.75;;;;;;;5.66;100.00;99413.81;5018333;28;20033;-67
2024/02/22 01:58:33;;;;;;;51.25;24.83;;;;;;;5.67;100.00;99417.31;5017175;28;20125;-66
2024/02/22 02:01:00;;;;;;;50.67;24.83;;;;;;;5.62;100.00;99415.25;5016914;28;20026;-67
2024/02/22 02:03:26;;;;;;;52.53;24.65;;;;;;;5.48;100.00;99389.56;5016635;28;20053;-68
2024/02/22 02:05:53;;;;;;;49.03;24.50;;;;;;;5.55;100.00;99399.22;5018501;28;20030;-67
2024/02/22 02:08:18;;;;;;;55.33;23.90;;;;;;;5.57;100.00;99405.19;5018171;28;20030;-68
2024/02/22 02:10:46;;;;;;;47.20;24.25;;;;;;;5.58;100.00;99401.47;5022363;28;20049;-69
2024/02/22 02:13:12;;;;;;;57.75;25.48;;;;;;;5.59;100.00;99388.97;5023005;28;20037;-71
2024/02/22 02:15:38;;;;;;;52.72;23.95;;;;;;;5.57;100.00;99386.50;5019788;28;20030;-70
2024/02/22 02:18:04;;;;;;;46.80;20.95;;;;;;;5.56;100.00;99387.53;5018904;28;20026;-67
2024/02/22 02:20:49;;;;;;;44.90;22.75;;;;;;;5.55;100.00;99385.88;5017214;28;20041;-67
2024/02/22 02:23:34;;;;;;;;;;;;;;;5.50;100.00;99385.66;5017091;28;20053;-68
2024/02/22 02:26:00;;;;;;;47.17;21.95;;;;;;;5.52;100.00;99372.94;5018045;28;19913;-68
2024/02/22 02:28:27;;;;;;;42.17;22.90;;;;;;;5.53;100.00;99373.75;5017117;28;20120;-68
2024/02/22 02:30:52;;;;;;;48.47;23.55;;;;;;;5.53;100.00;99369.25;4985660;28;20060;-67
2024/02/22 02:33:18;;;;;;;46.20;23.77;;;;;;;5.53;100.00;99374.59;5016436;28;20030;-67
2024/02/22 02:35:44;;;;;;;48.28;23.13;;;;;;;5.50;100.00;99367.00;5000522;28;20034;-68
2024/02/22 02:38:10;;;;;;;49.88;23.40;;;;;;;5.51;100.00;99373.97;5017630;28;20468;-68
2024/02/22 02:40:36;;;;;;;43.15;20.58;;;;;;;5.43;100.00;99352.81;5018613;28;20030;-67
2024/02/22 02:43:01;;;;;;;40.72;22.30;;;;;;;5.48;100.00;99360.22;5018265;28;20029;-68
2024/02/22 02:45:27;;;;;;;47.20;21.13;;;;;;;5.46;100.00;99352.38;5017110;28;20401;-67
2024/02/22 02:47:53;;;;;;;41.85;21.85;;;;;;;5.51;100.00;99349.13;5000242;28;20378;-68
2024/02/22 02:50:18;;;;;;;42.00;21.50;;;;;;;5.48;100.00;99346.88;5018477;28;20041;-68
2024/02/22 02:52:43;;;;;;;49.78;22.92;;;;;;;5.48;100.00;99339.69;5017311;28;20034;-68
2024/02/22 02:55:12;;;;;;;47.63;22.42;;;;;;;5.45;100.00;99339.25;5016501;28;20041;-68
2024/02/22 02:57:38;;;;;;;45.13;22.45;;;;;;;5.46;100.00;99333.72;5000760;28;20034;-68
2024/02/22 03:00:06;;;;;;;42.20;21.65;;;;;;;5.47;100.00;99324.72;5016632;28;20113;-67
2024/02/22 03:02:33;;;;;;;42.47;22.65;;;;;;;5.41;100.00;99317.50;5017020;28;20108;-68
2024/02/22 03:04:59;;;;;;;44.33;22.08;;;;;;;5.45;100.00;99313.41;4999992;28;20089;-67
2024/02/22 03:07:24;;;;;;;43.60;21.60;;;;;;;5.42;100.00;99303.97;5013341;28;20559;-67
2024/02/22 03:09:50;;;;;;;45.22;21.40;;;;;;;5.44;100.00;99319.78;5018634;28;20034;-68
2024/02/22 03:12:15;;;;;;;42.40;21.92;;;;;;;5.40;100.00;99310.53;5021488;28;20385;-67
2024/02/22 03:14:41;;;;;;;44.70;21.73;;;;;;;5.42;100.00;99316.47;5020309;28;20112;-67
2024/02/22 03:17:06;;;;;;;43.35;21.35;;;;;;;5.42;100.00;99311.97;5004225;28;20652;-68
2024/02/22 03:19:31;;;;;;;44.97;21.08;;;;;;;5.36;100.00;99303.94;5022261;28;20079;-68
2024/02/22 03:21:58;;;;;;;36.15;20.63;;;;;;;5.42;100.00;99319.16;5021257;28;20038;-68
2024/02/22 03:24:24;;;;;;;42.30;20.20;;;;;;;5.27;100.00;99283.84;5021771;28;20046;-68
2024/02/22 03:26:50;;;;;;;40.70;19.80;;;;;;;5.39;100.00;99312.38;5021217;28;20044;-68
2024/02/22 03:29:15;;;;;;;35.40;19.42;;;;;;;5.39;100.00;99314.22;5003318;28;20061;-67
2024/02/22 03:31:43;;;;;;;37.97;18.52;;;;;;;5.33;100.00;99299.84;5020167;28;20022;-70
2024/02/22 03:34:08;;;;;;;36.13;18.45;;;;;;;5.37;100.00;99297.59;5023128;28;20057;-70
2024/02/22 03:36:34;;;;;;;39.88;18.83;;;;;;;5.34;100.00;99293.50;5022599;28;20097;-68
2024/02/22 03:39:02;;;;;;;42.58;18.58;;;;;;;5.14;100.00;99269.44;5020120;28;20077;-68
2024/02/22 03:41:27;;;;;;;37.90;19.00;;;;;;;5.34;100.00;99290.81;5019445;28;20053;-68
2024/02/22 03:43:53;;;;;;;38.92;19.20;;;;;;;5.34;100.00;99290.00;5021335;28;20032;-68
2024/02/22 03:46:20;;;;;;;43.53;19.88;;;;;;;5.34;100.00;99288.16;5020715;28;20058;-68
2024/02/22 03:48:46;;;;;;;34.90;18.20;;;;;;;5.33;100.00;99275.00;5019259;28;20071;-68
2024/02/22 03:51:12;;;;;;;38.33;18.70;;;;;;;5.12;100.00;99238.66;5020565;28;20076;-68
2024/02/22 03:53:37;;;;;;;44.88;18.95;;;;;;;5.31;100.00;99272.56;5002674;28;20120;-68
2024/02/22 03:56:03;;;;;;;41.42;19.17;;;;;;;5.28;100.00;99259.63;5019405;28;20030;-67
2024/02/22 03:58:28;;;;;;;29.70;15.60;;;;;;;5.30;100.00;99256.78;5018990;28;20025;-67
2024/02/22 04:00:54;;;;;;;39.97;17.58;;;;;;;5.26;100.00;99256.31;4997357;28;20036;-67
2024/02/22 04:03:19;;;;;;;35.42;17.80;;;;;;;5.26;100.00;99255.50;5018059;28;20084;-67
2024/02/22 04:05:45;;;;;;;33.00;16.70;;;;;;;5.16;100.00;99239.91;5019044;28;20033;-68
2024/02/22 04:08:10;;;;;;;34.08;18.23;;;;;;;5.25;100.00;99248.53;5019560;28;20038;-67
2024/02/22 04:10:35;;;;;;;40.83;17.40;;;;;;;5.23;100.00;99247.91;5019959;28;20104;-67
2024/02/22 04:13:01;;;;;;;37.53;17.15;;;;;;;5.25;100.00;99237.88;5020376;28;20105;-68
2024/02/22 04:15:26;;;;;;;40.50;17.27;;;;;;;5.22;100.00;99230.28;5002607;28;20033;-67
2024/02/22 04:17:52;;;;;;;30.17;15.63;;;;;;;5.22;100.00;99238.28;5002295;28;20033;-68
2024/02/22 04:20:17;;;;;;;30.35;15.43;;;;;;;5.24;100.00;99225.56;5017947;28;20045;-67
2024/02/22 04:22:48;;;;;;;33.25;15.55;;;;;;;5.22;100.00;99216.94;5019757;28;20057;-67
2024/02/22 04:25:14;;;;;;;35.58;15.40;;;;;;;5.05;100.00;99187.19;5020104;28;20037;-68
2024/02/22 04:27:39;;;;;;;31.70;15.82;;;;;;;5.21;100.00;99220.66;5019785;28;20036;-70
2024/02/22 04:30:06;;;;;;;31.42;15.35;;;;;;;5.19;100.00;99207.50;5022290;28;20042;-74
2024/02/22 04:32:32;;;;;;;36.08;14.73;;;;;;;5.19;100.00;99208.31;5021958;28;20034;-68
2024/02/22 04:34:57;;;;;;;32.03;14.85;;;;;;;5.22;100.00;99198.28;5020071;28;20050;-68
2024/02/22 04:37:23;;;;;;;30.00;14.75;;;;;;;5.22;100.00;99195.63;5029194;28;20026;-67
2024/02/22 04:39:49;;;;;;;37.85;16.98;;;;;;;5.22;100.00;99190.28;5020587;28;20049;-72
2024/02/22 04:42:15;;;;;;;33.45;14.73;;;;;;;5.24;100.00;99188.25;5020056;28;20155;-68
2024/02/22 04:44:41;;;;;;;32.30;14.52;;;;;;;5.23;100.00;99184.75;5035134;28;20029;-69
2024/02/22 04:47:06;;;;;;;28.77;14.07;;;;;;;5.24;100.00;99186.41;5037597;28;20052;-68
2024/02/22 04:49:32;;;;;;;30.02;14.57;;;;;;;5.15;100.00;99161.75;5037588;28;20412;-68
2024/02/22 04:51:57;;;;;;;36.35;14.95;;;;;;;5.25;100.00;99180.03;5037193;28;20412;-67
2024/02/22 04:54:24;;;;;;;36.97;15.30;;;;;;;5.24;100.00;99185.56;5037332;28;20034;-67
2024/02/22 04:56:49;;;;;;;31.50;14.90;;;;;;;5.27;100.00;99177.16;5026391;28;20032;-68
2024/02/22 04:59:14;;;;;;;30.13;14.23;;;;;;;5.24;100.00;99174.91;5001066;28;20116;-67
2024/02/22 05:01:40;;;;;;;31.42;13.60;;;;;;;5.25;100.00;99160.53;5001064;28;20036;-68
2024/02/22 05:04:05;;;;;;;32.00;14.80;;;;;;;5.23;100.00;99168.75;5022277;28;20041;-68
2024/02/22 05:06:31;;;;;;;29.38;14.05;;;;;;;5.13;100.00;99155.84;5037958;28;20587;-68
2024/02/22 05:08:56;;;;;;;31.77;14.48;;;;;;;5.19;100.00;99168.31;5022680;28;20036;-68
2024/02/22 05:11:22;;;;;;;32.20;14.32;;;;;;;5.13;100.00;99150.50;5025167;28;20256;-68
2024/02/22 05:13:50;;;;;;;29.38;13.70;;;;;;;5.24;100.00;99166.91;5040623;28;20029;-69
2024/02/22 05:16:16;;;;;;;34.25;14.52;;;;;;;5.22;100.00;99164.44;5041661;28;20029;-67
2024/02/22 05:18:41;;;;;;;33.42;14.50;;;;;;;5.22;100.00;99168.94;5023207;28;20112;-68
2024/02/22 05:21:07;;;;;;;25.35;13.20;;;;;;;5.17;100.00;99154.38;5040149;28;20038;-69
2024/02/22 05:23:33;;;;;;;29.27;14.15;;;;;;;5.22;100.00;99168.94;5038367;28;20030;-69
2024/02/22 05:25:58;;;;;;;33.13;13.75;;;;;;;5.23;100.00;99166.09;5029916;28;20029;-70
2024/02/22 05:28:24;;;;;;;34.85;14.10;;;;;;;5.23;100.00;99154.59;5027536;28;20033;-70
2024/02/22 05:30:50;;;;;;;34.40;14.80;;;;;;;5.23;100.00;99149.25;5017938;28;20456;-69
2024/02/22 05:33:16;;;;;;;34.28;14.65;;;;;;;5.19;100.00;99149.66;5023130;28;20042;-71
2024/02/22 05:35:41;;;;;;;32.35;14.75;;;;;;;5.18;100.00;99153.34;5039127;28;20048;-68
2024/02/22 05:38:07;;;;;;;33.83;14.73;;;;;;;5.21;100.00;99146.81;5040379;28;20587;-70
2024/02/22 05:40:32;;;;;;;28.52;14.75;;;;;;;5.18;100.00;99142.69;5038097;28;20042;-68
2024/02/22 05:42:58;;;;;;;31.02;13.50;;;;;;;5.10;100.00;99118.06;5019639;28;20112;-70
2024/02/22 05:45:34;;;;;;;30.25;13.68;;;;;;;5.24;100.00;99134.91;5036767;28;20029;-68
2024/02/22 05:48:00;;;;;;;32.92;14.82;;;;;;;5.23;100.00;99133.25;5037098;28;20029;-67
2024/02/22 05:50:25;;;;;;;32.10;14.70;;;;;;;5.21;100.00;99124.66;5036782;28;20205;-71
2024/02/22 05:52:51;;;;;;;33.75;14.48;;;;;;;5.21;100.00;99128.13;5036018;28;20075;-68
2024/02/22 05:55:16;;;;;;;33.45;14.25;;;;;;;5.20;100.00;99126.50;5037877;28;20179;-71
2024/02/22 05:57:41;;;;;;;29.67;14.35;;;;;;;5.24;100.00;99124.25;5035574;28;20029;-69
2024/02/22 06:00:08;;;;;;;31.30;14.68;;;;;;;5.24;100.00;99124.25;5036046;28;20033;-71
2024/02/22 06:02:33;;;;;;;30.67;15.10;;;;;;;5.24;100.00;99111.72;4999631;28;20074;-68
2024/02/22 06:04:59;;;;;;;33.88;14.50;;;;;;;5.23;100.00;99112.75;5034479;28;20484;-70
2024/02/22 06:07:24;;;;;;;36.03;14.68;;;;;;;5.24;100.00;99109.06;5036061;28;20113;-70
2024/02/22 06:09:50;;;;;;;30.27;14.50;;;;;;;5.24;100.00;99113.56;5031947;28;20038;-70
2024/02/22 06:12:16;;;;;;;41.03;14.93;;;;;;;5.24;100.00;99105.59;5034916;28;20117;-69
2024/02/22 06:14:41;;;;;;;32.45;14.48;;;;;;;5.24;100.00;99114.41;5035318;28;20049;-69
2024/02/22 06:17:06;;;;;;;34.28;14.02;;;;;;;5.15;100.00;99099.63;5035502;28;20021;-69
2024/02/22 06:19:32;;;;;;;32.08;13.77;;;;;;;5.23;100.00;99117.25;5014890;28;20037;-68
2024/02/22 06:21:57;;;;;;;33.35;14.25;;;;;;;5.13;100.00;99097.19;5034759;28;20441;-67
2024/02/22 06:24:24;;;;;;;29.10;14.00;;;;;;;5.24;100.00;99100.25;5036794;28;20030;-67
2024/02/22 06:26:49;;;;;;;26.02;13.02;;;;;;;5.10;100.00;99076.25;5037938;28;20025;-69
2024/02/22 06:29:14;;;;;;;31.40;13.45;;;;;;;5.23;100.00;99093.25;5038618;28;20048;-72
2024/02/22 06:31:40;;;;;;;40.15;15.13;;;;;;;5.22;100.00;99094.28;5039600;28;20021;-69
2024/02/22 06:34:05;;;;;;;36.08;14.60;;;;;;;5.25;100.00;99085.88;5037838;28;20112;-70
2024/02/22 06:36:32;;;;;;;33.20;14.48;;;;;;;5.13;100.00;99070.50;5038299;28;20022;-72
2024/02/22 06:38:57;;;;;;;33.47;14.05;;;;;;;5.19;100.00;99076.84;5042933;28;20062;-66
2024/02/22 06:41:23;;;;;;;35.55;14.00;;;;;;;5.24;100.00;99093.06;5035823;28;20117;-71
2024/02/22 06:43:49;;;;;;;32.75;14.20;;;;;;;5.24;100.00;99084.25;5027143;28;20085;-69
2024/02/22 06:46:16;;;;;;;36.00;14.30;;;;;;;5.24;100.00;99076.25;5042830;28;20021;-72
2024/02/22 06:48:41;;;;;;;33.50;14.90;;;;;;;5.26;100.00;99076.84;5038209;28;20501;-72
2024/02/22 06:51:06;;;;;;;33.50;14.15;;;;;;;5.26;100.00;99074.19;5038657;28;20186;-68
2024/02/22 06:53:32;;;;;;;34.67;13.55;;;;;;;5.28;100.00;99080.13;5036950;28;20048;-69
2024/02/22 06:55:58;;;;;;;30.75;14.50;;;;;;;5.25;100.00;99073.34;5037913;28;20094;-70
2024/02/22 06:58:23;;;;;;;35.88;14.32;;;;;;;5.27;100.00;99079.31;5039199;28;20033;-65
2024/02/22 07:00:48;;;;;;;29.85;14.27;;;;;;;5.26;100.00;99071.50;5040569;28;20111;-67
2024/02/22 07:03:14;;;;;;;37.95;15.05;;;;;;;5.25;100.00;99067.22;5021991;28;20044;-69
2024/02/22 07:05:39;;;;;;;29.17;13.70;;;;;;;5.30;100.00;99078.09;5023815;28;20044;-73
2024/02/22 07:08:05;;;;;;;31.08;14.38;;;;;;;5.29;100.00;99061.25;5044597;28;20067;-67
2024/02/22 07:10:30;;;;;;;40.47;15.40;;;;;;;5.30;100.00;99062.09;5050358;28;20045;-71
2024/02/22 07:12:56;;;;;;;29.90;14.40;;;;;;;5.33;100.00;99061.66;5032166;28;20025;-75
2024/02/22 07:15:22;;;;;;;34.72;15.32;;;;;;;5.30;100.00;99057.56;5012605;28;20022;-70
2024/02/22 07:17:48;;;;;;;34.00;14.98;;;;;;;5.32;100.00;99054.69;5013682;28;20033;-67
2024/02/22 07:20:13;;;;;;;35.28;14.98;;;;;;;5.26;100.00;99036.84;5014744;28;20489;-73
2024/02/22 07:22:43;;;;;;;31.35;15.68;;;;;;;5.32;100.00;99041.34;5013335;28;20041;-73
2024/02/22 07:25:11;;;;;;;33.17;14.38;;;;;;;5.23;100.00;99031.91;4998796;28;20033;-72
2024/02/22 07:27:39;;;;;;;31.45;14.93;;;;;;;5.14;100.00;99020.69;5016324;28;20037;-70
2024/02/22 07:30:05;;;;;;;30.63;15.27;;;;;;;5.31;100.00;99035.19;5017580;28;20053;-68
2024/02/22 07:32:31;;;;;;;34.42;14.02;;;;;;;5.34;100.00;99039.31;5016928;28;20076;-70
2024/02/22 07:34:58;;;;;;;30.40;15.15;;;;;;;5.34;100.00;99039.31;5015783;28;20046;-66
2024/02/22 07:37:23;;;;;;;36.83;15.25;;;;;;;5.33;100.00;99032.31;5016569;28;20034;-68
2024/02/22 07:39:48;;;;;;;36.08;16.10;;;;;;;5.35;100.00;99024.94;5014914;28;20040;-81
2024/02/22 07:42:14;;;;;;;29.63;15.10;;;;;;;5.37;100.00;99020.22;5012879;28;20033;-81
2024/02/22 07:44:43;;;;;;;27.90;13.65;;;;;;;5.37;100.00;99023.69;5016978;28;20552;-78
2024/02/22 07:47:08;;;;;;;34.08;15.27;;;;;;;5.18;100.00;98993.38;5035256;28;20026;-71
2024/02/22 07:49:34;;;;;;;27.67;13.25;;;;;;;5.37;100.00;99009.56;5018549;28;20033;-66
2024/02/22 07:51:59;;;;;;;27.05;14.55;;;;;;;5.39;100.00;99015.47;5035904;28;20037;-68
2024/02/22 07:54:25;;;;;;;27.10;14.73;;;;;;;5.41;100.00;99014.25;5037121;28;20053;-70
2024/02/22 07:56:50;;;;;;;29.52;14.27;;;;;;;5.41;100.00;99016.91;5005277;28;20408;-74
2024/02/22 07:59:16;;;;;;;26.48;14.50;;;;;;;5.41;100.00;99024.91;5022561;28;20076;-79
2024/02/22 08:01:42;;;;;;;27.77;13.98;;;;;;;5.45;100.00;99019.97;5038119;28;20100;-72
2024/02/22 08:04:07;;;;;;;34.30;13.88;;;;;;;5.47;100.00;99015.25;5037770;28;20037;-86
2024/02/22 08:06:33;;;;;;;29.05;15.13;;;;;;;5.44;100.00;99015.69;5036187;28;20040;-78
2024/02/22 08:08:58;;;;;;;31.13;14.57;;;;;;;5.42;100.00;98999.06;5022668;28;20052;-72
2024/02/22 08:11:26;;;;;;;27.35;14.02;;;;;;;5.46;100.00;99005.59;5022095;28;20037;-84
2024/02/22 08:13:52;;;;;;;30.15;14.13;;;;;;;5.47;100.00;98996.59;5021468;28;20026;-79
2024/02/22 08:16:17;;;;;;;27.55;13.98;;;;;;;5.51;100.00;98997.81;5036994;28;20037;-81
2024/02/22 08:18:42;;;;;;;28.10;13.82;;;;;;;5.40;100.00;98982.47;5037080;28;20037;-65
2024/02/22 08:21:08;;;;;;;29.10;13.77;;;;;;;5.54;100.00;98991.22;5034363;28;20091;-70
2024/02/22 08:23:34;;;;;;;26.98;13.15;;;;;;;5.47;100.00;98971.78;5036437;28;20120;-69
2024/02/22 08:25:59;;;;;;;27.60;14.05;;;;;;;5.47;100.00;98974.44;5034763;28;20045;-71
2024/02/22 08:28:27;;;;;;;25.85;13.88;;;;;;;5.56;100.00;98983.81;5036815;28;20029;-72
2024/02/22 08:30:52;;;;;;;28.90;14.65;;;;;;;5.59;100.00;98980.72;5039558;28;20037;-66
2024/02/22 08:33:20;;;;;;;27.90;12.68;;;;;;;5.49;100.00;98954.50;5039962;28;20735;-74
2024/02/22 08:35:46;;;;;;;24.00;12.93;;;;;;;5.61;100.00;98974.16;5037171;28;20032;-67
2024/02/22 08:38:12;;;;;;;28.50;13.35;;;;;;;5.62;100.00;98980.31;5032276;28;20064;-80
2024/02/22 08:40:40;;;;;;;24.42;12.88;;;;;;;5.44;100.00;98946.31;5034844;28;20029;-78
2024/02/22 08:43:05;;;;;;;25.15;12.90;;;;;;;5.46;100.00;98944.25;5034119;28;20451;-70
2024/02/22 08:45:31;;;;;;;23.80;12.02;;;;;;;5.63;100.00;98973.97;5036311;28;20021;-69
2024/02/22 08:47:57;;;;;;;19.20;11.45;;;;;;;5.61;100.00;98974.16;5035012;28;20044;-80
2024/02/22 08:50:22;;;;;;;21.02;12.60;;;;;;;5.62;100.00;98978.47;5037595;28;20061;-69
2024/02/22 08:52:48;;;;;;;20.33;11.63;;;;;;;5.62;100.00;98972.31;5036990;28;20134;-71
2024/02/22 08:55:14;;;;;;;27.67;12.30;;;;;;;5.68;100.00;98978.66;5036835;28;20029;-76
2024/02/22 08:57:39;;;;;;;19.50;10.50;;;;;;;5.52;100.00;98959.41;5037163;28;20112;-73
2024/02/22 09:00:08;;;;;;;19.60;11.07;;;;;;;5.68;100.00;98981.31;5040280;28;20033;-86
2024/02/22 09:02:39;;;;;;;21.05;11.20;;;;;;;5.63;100.00;98982.78;5040255;28;20037;-68
2024/02/22 09:05:10;;;;;;;21.55;11.77;;;;;;;5.51;100.00;98955.13;5044225;28;20045;-73
2024/02/22 09:07:35;;;;;;;17.58;10.80;;;;;;;5.67;100.00;98977.03;5059114;28;20379;-76
2024/02/22 09:10:04;;;;;;;20.35;11.52;;;;;;;5.68;100.00;98974.13;5057997;28;20488;-74
2024/02/22 09:12:30;;;;;;;18.70;11.30;;;;;;;5.55;100.00;98961.66;5056105;28;20083;-75
2024/02/22 09:14:55;;;;;;;20.55;11.48;;;;;;;5.70;100.00;98981.94;5057925;28;20020;-68
2024/02/22 09:17:21;;;;;;;21.95;12.23;;;;;;;5.74;100.00;98993.81;5059222;28;20427;-69
2024/02/22 09:19:46;;;;;;;21.45;12.35;;;;;;;5.75;100.00;98995.44;5058752;28;20100;-69
2024/02/22 09:22:12;;;;;;;22.50;11.50;;;;;;;5.74;100.00;98989.28;5056755;28;20808;-68
2024/02/22 09:24:45;;;;;;;22.23;11.05;;;;;;;5.63;100.00;98971.28;5040917;28;20029;-83
2024/02/22 09:27:12;;;;;;;18.38;10.98;;;;;;;5.71;100.00;98991.56;5055974;28;20821;-67
2024/02/22 09:29:38;;;;;;;21.30;12.73;;;;;;;5.71;100.00;98997.72;5059408;28;20049;-70
2024/02/22 09:32:06;;;;;;;20.10;12.32;;;;;;;5.65;100.00;98987.91;5061624;28;20033;-71
2024/02/22 09:34:34;;;;;;;29.27;12.98;;;;;;;5.70;100.00;99005.97;5042021;28;20095;-65
2024/02/22 09:37:01;;;;;;;22.17;12.35;;;;;;;5.71;100.00;98994.25;5039975;28;20033;-71
2024/02/22 09:39:27;;;;;;;28.13;12.82;;;;;;;5.71;100.00;99000.38;5036017;28;20049;-67
2024/02/22 09:41:54;;;;;;;23.20;12.90;;;;;;;5.63;100.00;98980.13;5019550;28;20057;-65
2024/02/22 09:44:22;;;;;;;21.50;13.07;;;;;;;5.72;100.00;98993.19;5036863;28;20056;-66
2024/02/22 09:46:54;;;;;;;24.63;13.43;;;;;;;5.58;100.00;98974.56;5038962;28;20029;-66
2024/02/22 09:49:24;;;;;;;22.52;13.15;;;;;;;5.67;100.00;98983.19;5037456;28;20052;-66
2024/02/22 09:51:59;;;;;;;24.33;13.20;;;;;;;5.72;100.00;98990.53;5037503;28;20099;-66
2024/02/22 09:54:25;;;;;;;20.77;12.23;;;;;;;5.72;100.00;98987.88;5019826;28;20109;-66
2024/02/22 09:56:51;;;;;;;25.38;12.63;;;;;;;5.76;100.00;98989.06;5020962;28;20615;-70
2024/02/22 09:59:17;;;;;;;23.48;13.02;;;;;;;5.79;100.00;98977.97;5037154;28;20033;-68
2024/02/22 10:01:44;;;;;;;25.40;12.77;;;;;;;5.73;100.00;98984.16;5038193;28;20021;-66
2024/02/22 10:04:23;;;;;;;23.05;12.70;;;;;;;5.75;100.00;98982.09;5039004;28;20049;-66
2024/02/22 10:06:49;;;;;;;25.48;12.80;;;;;;;5.77;100.00;98980.06;5037094;28;20392;-66
2024/02/22 10:09:14;;;;;;;27.58;14.02;;;;;;;5.76;100.00;98968.56;5037665;28;20045;-67
2024/02/22 10:11:44;;;;;;;23.30;13.48;;;;;;;5.75;100.00;98966.91;5037701;28;20060;-73
2024/02/22 10:14:13;;;;;;;23.20;12.50;;;;;;;5.75;100.00;98960.75;5037638;28;20424;-67
2024/02/22 10:16:40;;;;;;;25.70;13.20;;;;;;;5.80;100.00;98952.94;5038047;28;20026;-66
2024/02/22 10:19:06;;;;;;;24.40;12.27;;;;;;;5.77;100.00;98948.84;5036060;28;20052;-66
2024/02/22 10:21:33;;;;;;;21.10;12.45;;;;;;;5.82;100.00;98956.19;5002897;28;20579;-73
2024/02/22 10:23:58;;;;;;;19.63;12.38;;;;;;;5.85;100.00;98945.09;5036462;28;20075;-66
2024/02/22 10:26:25;;;;;;;21.65;12.30;;;;;;;5.76;100.00;98928.53;5037285;28;20037;-66
2024/02/22 10:29:00;;;;;;;19.10;11.70;;;;;;;5.74;100.00;98922.59;5037004;28;20029;-66
2024/02/22 10:31:26;;;;;;;21.17;12.57;;;;;;;5.92;100.00;98953.88;5038107;28;20021;-66
2024/02/22 10:34:00;;;;;;;21.33;11.82;;;;;;;5.92;100.00;98953.06;5036872;28;20059;-66
2024/02/22 10:36:27;;;;;;;18.60;11.27;;;;;;;5.91;100.00;98951.44;5037812;28;20388;-65
2024/02/22 10:38:54;;;;;;;15.98;11.07;;;;;;;5.89;100.00;98943.63;5038674;28;20429;-66
2024/02/22 10:41:21;;;;;;;16.50;10.82;;;;;;;5.89;100.00;98941.81;5040157;28;20396;-65
2024/02/22 10:43:50;;;;;;;16.92;10.10;;;;;;;5.89;100.00;98946.28;5039817;28;20092;-71
2024/02/22 10:46:17;;;;;;;16.95;9.95;;;;;;;5.86;100.00;98936.88;5037947;28;20411;-66
2024/02/22 10:48:51;;;;;;;15.00;9.55;;;;;;;5.89;100.00;98932.94;5022395;28;20068;-70
2024/02/22 10:51:19;;;;;;;13.18;8.63;;;;;;;5.84;100.00;98936.28;5040268;28;20036;-66
2024/02/22 10:53:52;;;;;;;17.70;9.15;;;;;;;5.85;100.00;98929.91;5039724;28;20030;-64
2024/02/22 10:56:22;;;;;;;14.50;8.23;;;;;;;5.86;100.00;98920.88;5038471;28;20079;-65
2024/02/22 10:58:51;;;;;;;13.45;8.13;;;;;;;5.89;100.00;98931.13;5039045;28;20037;-66
2024/02/22 11:01:18;;;;;;;12.23;7.93;;;;;;;5.91;100.00;98924.75;5038551;28;20040;-67
2024/02/22 11:03:44;;;;;;;12.18;8.23;;;;;;;5.90;100.00;98915.91;5038815;28;20079;-70
2024/02/22 11:06:13;;;;;;;11.55;7.15;;;;;;;5.91;100.00;98917.56;5040277;28;20029;-71
2024/02/22 11:08:48;;;;;;;10.48;6.97;;;;;;;5.91;100.00;98912.22;5040071;28;20399;-67
2024/02/22 11:11:23;;;;;;;;;;;;;;;5.87;100.00;98900.34;5042180;28;20060;-69
2024/02/22 11:13:59;;;;;;;6.88;5.25;;;;;;;5.77;100.00;98873.31;5042282;28;19916;-66
2024/02/22 11:16:33;;;;;;;7.93;5.68;;;;;;;5.89;100.00;98877.75;5040127;28;20036;-67